createdAt,value
2019-02-28T00:02:13.231Z,25.73
2019-02-28T00:04:42.997Z,25.77
2019-02-28T00:07:17.648Z,25.17
2019-02-28T00:09:44.202Z,25.37
2019-02-28T00:12:14.422Z,25.10
2019-02-28T00:14:45.637Z,25.20
2019-02-28T00:17:15.488Z,23.53
2019-02-28T00:19:45.251Z,22.70
2019-02-28T00:22:15.543Z,24.70
2019-02-28T00:24:45.426Z,25.13
2019-02-28T00:27:15.161Z,25.00
2019-02-28T00:29:44.925Z,25.40
2019-02-28T00:32:14.651Z,26.07
2019-02-28T00:34:44.410Z,25.43
2019-02-28T00:37:14.148Z,23.50
2019-02-28T00:39:44.017Z,23.83
2019-02-28T00:42:17.397Z,23.27
2019-02-28T00:44:45.352Z,22.83
2019-02-28T00:47:16.486Z,22.70
2019-02-28T00:49:46.868Z,22.43
2019-02-28T00:52:16.601Z,25.93
2019-02-28T00:54:46.365Z,25.87
2019-02-28T00:57:16.103Z,25.63
2019-02-28T00:59:45.910Z,25.60
2019-02-28T01:02:17.578Z,23.43
2019-02-28T01:04:47.108Z,22.40
2019-02-28T01:07:17.007Z,23.40
2019-02-28T01:09:46.792Z,22.90
2019-02-28T01:12:19.343Z,25.43
2019-02-28T01:14:48.015Z,25.77
2019-02-28T01:17:17.738Z,24.80
2019-02-28T01:19:47.509Z,25.23
2019-02-28T01:22:19.545Z,24.37
2019-02-28T01:24:49.317Z,26.17
2019-02-28T01:27:29.357Z,26.67
2019-02-28T01:30:01.206Z,24.93
2019-02-28T01:32:30.984Z,26.47
2019-02-28T01:35:05.801Z,22.90
2019-02-28T01:37:32.242Z,21.90
2019-02-28T01:40:04.408Z,20.47
2019-02-28T01:42:33.444Z,21.27
2019-02-28T01:45:03.215Z,21.13
2019-02-28T01:47:32.961Z,21.43
2019-02-28T01:50:03.063Z,23.73
2019-02-28T01:52:32.802Z,24.67
2019-02-28T01:55:02.568Z,22.27
2019-02-28T01:57:32.299Z,23.00
2019-02-28T02:00:02.067Z,21.50
2019-02-28T02:02:31.799Z,22.73
2019-02-28T02:05:01.571Z,25.50
2019-02-28T02:07:33.317Z,23.37
2019-02-28T02:10:02.971Z,23.93
2019-02-28T02:12:32.717Z,22.37
2019-02-28T02:15:02.477Z,21.23
2019-02-28T02:17:35.446Z,20.27
2019-02-28T02:20:05.174Z,21.17
2019-02-28T02:22:34.940Z,22.50
2019-02-28T02:25:05.187Z,22.07
2019-02-28T02:27:34.927Z,21.33
2019-02-28T02:30:16.335Z,22.00
2019-02-28T02:32:46.123Z,22.77
2019-02-28T02:35:15.902Z,23.17
2019-02-28T02:37:45.631Z,22.00
2019-02-28T02:40:16.504Z,20.87
2019-02-28T02:42:48.674Z,22.60
2019-02-28T02:45:17.692Z,23.00
2019-02-28T02:47:47.437Z,20.70
2019-02-28T02:50:17.218Z,23.30
2019-02-28T02:52:46.948Z,23.43
2019-02-28T02:55:16.718Z,20.47
2019-02-28T02:57:50.608Z,21.43
2019-02-28T03:00:18.819Z,22.57
2019-02-28T03:02:48.550Z,21.00
2019-02-28T03:05:18.318Z,19.33
2019-02-28T03:07:49.154Z,21.37
2019-02-28T03:10:19.670Z,22.20
2019-02-28T03:12:49.841Z,18.80
2019-02-28T03:15:25.259Z,20.17
2019-02-28T03:17:51.054Z,19.00
2019-02-28T03:20:20.821Z,19.37
2019-02-28T03:22:50.548Z,19.17
2019-02-28T03:25:27.736Z,18.83
2019-02-28T03:27:56.458Z,20.03
2019-02-28T03:30:30.977Z,18.33
2019-02-28T03:32:54.653Z,20.03
2019-02-28T03:35:24.424Z,19.57
2019-02-28T03:37:54.156Z,19.23
2019-02-28T03:40:23.919Z,18.37
2019-02-28T03:42:53.652Z,18.37
2019-02-28T03:45:23.408Z,18.40
2019-02-28T03:47:58.343Z,18.20
2019-02-28T03:50:24.615Z,18.37
2019-02-28T03:52:54.331Z,18.30
2019-02-28T03:55:24.196Z,20.83
2019-02-28T03:57:53.934Z,20.00
2019-02-28T04:00:32.633Z,19.77
2019-02-28T04:02:58.429Z,18.40
2019-02-28T04:05:28.411Z,18.37
2019-02-28T04:07:58.524Z,18.77
2019-02-28T04:10:28.284Z,19.63
2019-02-28T04:12:58.032Z,21.00
2019-02-28T04:15:27.829Z,18.50
2019-02-28T04:17:57.620Z,19.13
2019-02-28T04:20:27.414Z,19.57
2019-02-28T04:22:59.902Z,20.53
2019-02-28T04:25:28.610Z,20.83
2019-02-28T04:27:58.333Z,16.40
2019-02-28T04:30:29.671Z,18.20
2019-02-28T04:33:01.398Z,16.83
2019-02-28T04:35:30.879Z,16.70
2019-02-28T04:38:00.616Z,16.77
2019-02-28T04:40:30.369Z,16.50
2019-02-28T04:43:00.117Z,16.43
2019-02-28T04:45:29.890Z,16.43
2019-02-28T04:47:59.616Z,15.77
2019-02-28T04:50:32.085Z,17.07
2019-02-28T04:53:00.832Z,15.07
2019-02-28T04:55:30.776Z,15.97
2019-02-28T04:58:00.521Z,16.87
2019-02-28T05:00:30.377Z,17.23
2019-02-28T05:03:00.088Z,17.17
2019-02-28T05:05:29.876Z,17.43
2019-02-28T05:08:04.668Z,15.13
2019-02-28T05:10:31.174Z,17.13
2019-02-28T05:13:00.915Z,18.60
2019-02-28T05:15:30.680Z,18.10
2019-02-28T05:18:00.415Z,14.17
2019-02-28T05:20:32.894Z,13.17
2019-02-28T05:23:02.979Z,13.07
2019-02-28T05:25:32.862Z,13.07
2019-02-28T05:28:02.595Z,13.47
2019-02-28T05:30:32.373Z,14.23
2019-02-28T05:33:02.129Z,13.23
2019-02-28T05:35:33.928Z,13.43
2019-02-28T05:38:09.127Z,12.53
2019-02-28T05:40:41.328Z,12.47
2019-02-28T05:43:24.215Z,13.47
2019-02-28T05:45:59.491Z,12.20
2019-02-28T05:48:41.096Z,13.03
2019-02-28T05:51:19.408Z,12.57
2019-02-28T05:54:00.567Z,13.07
2019-02-28T05:57:12.128Z,13.63
2019-02-28T05:59:13.382Z,15.47
2019-02-28T06:02:54.411Z,13.20
2019-02-28T06:04:41.334Z,11.47
2019-02-28T06:07:28.690Z,12.40
2019-02-28T06:10:10.387Z,11.50
2019-02-28T06:12:48.720Z,11.30
2019-02-28T06:15:31.167Z,12.33
2019-02-28T06:18:09.432Z,14.37
2019-02-28T06:20:52.669Z,17.30
2019-02-28T06:23:46.407Z,14.73
2019-02-28T06:26:31.920Z,14.17
2019-02-28T06:29:29.223Z,16.10
2019-02-28T06:32:05.381Z,18.23
2019-02-28T06:34:47.878Z,19.67
2019-02-28T06:37:38.401Z,15.73
2019-02-28T06:40:14.232Z,15.00
2019-02-28T06:42:46.818Z,14.57
2019-02-28T06:45:16.641Z,13.40
2019-02-28T06:47:53.520Z,14.20
2019-02-28T06:50:30.837Z,13.47
2019-02-28T06:53:00.121Z,14.67
2019-02-28T06:55:31.475Z,15.80
2019-02-28T06:58:10.099Z,15.03
2019-02-28T07:00:47.362Z,14.27
2019-02-28T07:03:20.038Z,15.93
2019-02-28T07:05:51.226Z,18.70
2019-02-28T07:08:24.942Z,19.40
2019-02-28T07:10:53.385Z,17.60
2019-02-28T07:13:26.074Z,16.90
2019-02-28T07:15:59.919Z,15.87
2019-02-28T07:18:29.802Z,15.30
2019-02-28T07:20:59.598Z,16.40
2019-02-28T07:23:31.057Z,15.43
2019-02-28T07:26:05.132Z,13.47
2019-02-28T07:28:37.725Z,15.00
2019-02-28T07:31:13.826Z,14.23
2019-02-28T07:33:47.971Z,15.17
2019-02-28T07:36:21.918Z,15.60
2019-02-28T07:38:57.749Z,14.97
2019-02-28T07:41:27.635Z,15.73
2019-02-28T07:43:59.614Z,14.90
2019-02-28T07:46:32.332Z,15.27
2019-02-28T07:49:19.870Z,14.67
2019-02-28T07:51:49.631Z,15.20
2019-02-28T07:54:23.559Z,16.53
2019-02-28T07:56:55.021Z,15.83
2019-02-28T07:59:25.826Z,16.63
2019-02-28T08:01:55.662Z,16.40
2019-02-28T08:04:25.628Z,15.97
2019-02-28T08:06:56.989Z,16.33
2019-02-28T08:09:28.294Z,17.13
2019-02-28T08:12:00.337Z,18.00
2019-02-28T08:14:30.167Z,16.90
2019-02-28T08:17:00.663Z,16.33
2019-02-28T08:19:32.381Z,18.87
2019-02-28T08:22:05.175Z,17.70
2019-02-28T08:24:35.783Z,16.40
2019-02-28T08:27:06.581Z,17.70
2019-02-28T08:29:36.379Z,10.87
2019-02-28T08:32:11.089Z,15.67
2019-02-28T08:34:42.322Z,17.97
2019-02-28T08:37:14.030Z,18.67
2019-02-28T08:39:45.433Z,20.20
2019-02-28T08:42:15.580Z,20.40
2019-02-28T08:44:51.481Z,17.40
2019-02-28T08:47:23.322Z,18.30
2019-02-28T08:49:56.434Z,18.63
2019-02-28T08:52:28.520Z,19.03
2019-02-28T08:54:59.760Z,17.43
2019-02-28T08:57:30.085Z,17.77
2019-02-28T09:00:03.571Z,18.47
2019-02-28T09:02:34.288Z,17.73
2019-02-28T09:05:06.744Z,18.30
2019-02-28T09:07:39.655Z,20.80
2019-02-28T09:10:27.857Z,20.17
2019-02-28T09:12:57.630Z,19.67
2019-02-28T09:15:31.057Z,20.00
2019-02-28T09:18:03.152Z,21.97
2019-02-28T09:20:33.009Z,22.10
2019-02-28T09:23:06.417Z,21.77
2019-02-28T09:25:36.224Z,21.30
2019-02-28T09:28:10.209Z,21.17
2019-02-28T09:30:50.268Z,22.57
2019-02-28T09:33:30.440Z,18.30
2019-02-28T09:36:04.208Z,21.47
2019-02-28T09:38:38.844Z,20.27
2019-02-28T09:41:11.326Z,23.40
2019-02-28T09:43:41.268Z,26.20
2019-02-28T09:46:12.411Z,24.67
2019-02-28T09:48:44.141Z,21.23
2019-02-28T09:51:17.228Z,23.23
2019-02-28T09:53:50.927Z,22.03
2019-02-28T09:56:20.918Z,23.33
2019-02-28T09:58:56.712Z,22.57
2019-02-28T10:01:30.483Z,26.20
2019-02-28T10:04:05.655Z,22.50
2019-02-28T10:06:36.835Z,23.63
2019-02-28T10:09:11.495Z,22.50
2019-02-28T10:11:44.980Z,22.73
2019-02-28T10:14:25.635Z,20.73
2019-02-28T10:16:57.723Z,18.47
2019-02-28T10:19:32.571Z,23.10
2019-02-28T10:22:03.823Z,22.20
2019-02-28T10:24:37.085Z,22.33
2019-02-28T10:27:06.843Z,23.20
2019-02-28T10:29:42.922Z,22.43
2019-02-28T10:32:16.052Z,16.63
2019-02-28T10:35:01.305Z,22.20
2019-02-28T10:37:32.461Z,21.60
2019-02-28T10:40:05.148Z,21.30
2019-02-28T10:42:36.972Z,22.50
2019-02-28T10:45:12.110Z,21.37
2019-02-28T10:47:45.192Z,23.97
2019-02-28T10:50:19.504Z,20.37
2019-02-28T10:52:49.291Z,15.33
2019-02-28T10:55:22.335Z,23.57
2019-02-28T10:57:50.677Z,22.93
2019-02-28T11:00:32.821Z,22.70
2019-02-28T11:03:07.353Z,19.07
2019-02-28T11:05:42.666Z,21.87
2019-02-28T11:08:17.425Z,24.93
2019-02-28T11:10:48.523Z,23.00
2019-02-28T11:13:21.012Z,28.63
2019-02-28T11:15:51.115Z,20.17
2019-02-28T11:18:20.936Z,17.87
2019-02-28T11:20:53.816Z,16.77
2019-02-28T11:23:23.812Z,29.20
2019-02-28T11:25:55.286Z,24.33
2019-02-28T11:28:29.194Z,20.03
2019-02-28T11:31:19.177Z,22.97
2019-02-28T11:33:52.000Z,48.40
2019-02-28T11:36:21.847Z,29.20
2019-02-28T11:38:52.490Z,38.83
2019-02-28T11:41:23.549Z,28.03
2019-02-28T11:43:54.988Z,25.93
2019-02-28T11:46:30.308Z,23.20
2019-02-28T11:49:03.063Z,20.90
2019-02-28T11:51:35.201Z,27.03
2019-02-28T11:54:04.968Z,30.03
2019-02-28T11:56:34.725Z,22.20
2019-02-28T11:59:06.113Z,25.00
2019-02-28T12:01:35.842Z,14.70
2019-02-28T12:04:10.676Z,26.43
2019-02-28T12:06:50.421Z,32.13
2019-02-28T12:09:16.317Z,30.63
2019-02-28T12:11:49.124Z,24.83
2019-02-28T12:14:26.468Z,27.57
2019-02-28T12:16:58.738Z,24.20
2019-02-28T12:19:35.530Z,22.57
2019-02-28T12:22:12.068Z,22.07
2019-02-28T12:24:45.545Z,26.77
2019-02-28T12:27:24.408Z,25.90
2019-02-28T12:29:57.512Z,25.97
2019-02-28T12:32:27.564Z,28.27
2019-02-28T12:35:01.343Z,27.83
2019-02-28T12:37:30.567Z,27.33
2019-02-28T12:40:00.693Z,26.23
2019-02-28T12:42:34.592Z,21.03
2019-02-28T12:45:08.039Z,26.77
2019-02-28T12:47:38.640Z,26.13
2019-02-28T12:50:12.118Z,25.80
2019-02-28T12:52:48.836Z,25.20
2019-02-28T12:55:18.795Z,27.80
2019-02-28T12:57:48.613Z,24.70
2019-02-28T13:00:34.900Z,23.27
2019-02-28T13:03:16.107Z,28.30
2019-02-28T13:05:48.115Z,27.83
2019-02-28T13:08:15.967Z,29.00
2019-02-28T13:10:45.869Z,30.87
2019-02-28T13:13:21.423Z,9.33
2019-02-28T13:15:54.505Z,28.00
2019-02-28T13:18:24.238Z,21.00
2019-02-28T13:20:54.358Z,19.37
2019-02-28T13:23:25.537Z,23.40
2019-02-28T13:25:59.140Z,26.77
2019-02-28T13:28:29.726Z,26.07
2019-02-28T13:30:59.526Z,25.70
2019-02-28T13:33:35.810Z,25.83
2019-02-28T13:36:07.151Z,21.07
2019-02-28T13:38:38.629Z,19.67
2019-02-28T13:41:08.844Z,22.83
2019-02-28T13:43:42.012Z,27.03
2019-02-28T13:46:13.502Z,24.13
2019-02-28T13:48:43.280Z,26.90
2019-02-28T13:51:15.906Z,19.93
2019-02-28T13:53:45.685Z,27.80
2019-02-28T13:56:18.152Z,25.80
2019-02-28T13:58:47.921Z,17.33
2019-02-28T14:01:19.400Z,23.03
2019-02-28T14:03:49.181Z,26.80
2019-02-28T14:06:20.024Z,21.87
2019-02-28T14:08:49.975Z,29.20
2019-02-28T14:11:21.375Z,32.20
2019-02-28T14:13:52.670Z,30.50
2019-02-28T14:16:26.331Z,32.20
2019-02-28T14:18:54.749Z,23.20
2019-02-28T14:21:26.239Z,28.70
2019-02-28T14:23:56.768Z,28.70
2019-02-28T14:26:26.632Z,27.83
2019-02-28T14:28:56.376Z,28.37
2019-02-28T14:31:26.134Z,29.13
2019-02-28T14:33:55.868Z,28.83
2019-02-28T14:36:27.076Z,29.33
2019-02-28T14:38:58.541Z,29.13
2019-02-28T14:41:31.970Z,21.60
2019-02-28T14:44:04.840Z,31.27
2019-02-28T14:46:34.825Z,30.93
2019-02-28T14:49:07.462Z,27.87
2019-02-28T14:51:37.221Z,30.07
2019-02-28T14:54:06.958Z,26.90
2019-02-28T14:56:39.599Z,29.43
2019-02-28T14:59:09.661Z,27.77
2019-02-28T15:01:39.445Z,28.00
2019-02-28T15:04:09.189Z,27.07
2019-02-28T15:06:39.003Z,27.53
2019-02-28T15:09:19.376Z,28.97
2019-02-28T15:11:49.164Z,17.30
2019-02-28T15:14:18.890Z,29.17
2019-02-28T15:16:50.171Z,25.57
2019-02-28T15:19:21.369Z,28.43
2019-02-28T15:21:51.373Z,39.00
2019-02-28T15:24:21.111Z,27.23
2019-02-28T15:26:50.880Z,32.63
2019-02-28T15:29:23.408Z,35.70
2019-02-28T15:31:52.098Z,32.80
2019-02-28T15:34:22.452Z,28.57
2019-02-28T15:36:55.592Z,22.37
2019-02-28T15:39:23.869Z,31.90
2019-02-28T15:41:54.006Z,27.40
2019-02-28T15:44:25.717Z,29.70
2019-02-28T15:46:55.766Z,30.93
2019-02-28T15:49:25.722Z,30.80
2019-02-28T15:51:55.488Z,31.20
2019-02-28T15:54:26.781Z,27.07
2019-02-28T15:56:56.837Z,30.83
2019-02-28T15:59:26.571Z,35.10
2019-02-28T16:01:56.352Z,31.70
2019-02-28T16:04:26.923Z,36.23
2019-02-28T16:06:58.185Z,34.53
2019-02-28T16:09:28.070Z,34.93
2019-02-28T16:11:57.837Z,36.70
2019-02-28T16:14:27.564Z,35.97
2019-02-28T16:17:00.321Z,38.17
2019-02-28T16:19:28.776Z,37.93
2019-02-28T16:21:58.531Z,35.80
2019-02-28T16:24:28.278Z,35.87
2019-02-28T16:26:58.093Z,33.10
2019-02-28T16:29:30.785Z,40.00
2019-02-28T16:32:00.549Z,39.93
2019-02-28T16:34:30.308Z,39.37
2019-02-28T16:37:00.953Z,37.93
2019-02-28T16:39:31.614Z,41.07
2019-02-28T16:42:01.433Z,33.43
2019-02-28T16:44:31.798Z,36.93
2019-02-28T16:47:01.784Z,34.37
2019-02-28T16:49:31.514Z,45.83
2019-02-28T16:52:05.658Z,43.13
2019-02-28T16:54:33.905Z,42.83
2019-02-28T16:57:03.697Z,39.57
2019-02-28T16:59:33.435Z,41.60
2019-02-28T17:02:03.200Z,37.03
2019-02-28T17:04:32.973Z,39.70
2019-02-28T17:07:02.853Z,40.87
2019-02-28T17:09:34.143Z,42.63
2019-02-28T17:12:05.517Z,40.03
2019-02-28T17:14:35.225Z,43.47
2019-02-28T17:17:08.682Z,44.27
2019-02-28T17:19:38.041Z,41.07
2019-02-28T17:22:07.912Z,40.40
2019-02-28T17:24:38.927Z,42.53
2019-02-28T17:27:12.231Z,38.67
2019-02-28T17:29:43.611Z,41.33
2019-02-28T17:32:13.780Z,38.33
2019-02-28T17:34:43.583Z,38.10
2019-02-28T17:37:20.445Z,29.10
2019-02-28T17:39:51.120Z,31.17
2019-02-28T17:42:20.171Z,40.63
2019-02-28T17:44:55.697Z,31.50
2019-02-28T17:47:33.116Z,37.60
2019-02-28T17:50:39.316Z,40.53
2019-02-28T17:53:35.844Z,37.83
2019-02-28T17:56:22.727Z,35.53
2019-02-28T17:59:00.433Z,39.67
2019-02-28T18:01:44.810Z,39.93
2019-02-28T18:04:33.902Z,34.27
2019-02-28T18:07:09.670Z,37.17
2019-02-28T18:09:49.359Z,51.00
2019-02-28T18:12:45.332Z,44.80
2019-02-28T18:15:18.368Z,41.83
2019-02-28T18:18:17.812Z,44.57
2019-02-28T18:21:41.074Z,62.20
2019-02-28T18:24:30.164Z,46.80
2019-02-28T18:27:20.213Z,53.73
2019-02-28T18:30:28.082Z,41.53
2019-02-28T18:32:57.891Z,52.47
2019-02-28T18:35:29.110Z,50.40
2019-02-28T18:38:03.072Z,46.73
2019-02-28T18:40:33.310Z,45.83
2019-02-28T18:43:03.951Z,45.03
2019-02-28T18:45:39.530Z,46.43
2019-02-28T18:48:29.105Z,54.87
2019-02-28T18:51:02.368Z,56.10
2019-02-28T18:53:33.461Z,58.77
2019-02-28T18:56:04.974Z,53.40
2019-02-28T18:59:00.649Z,52.87
2019-02-28T19:02:17.213Z,51.50
2019-02-28T19:08:03.811Z,84.63
2019-02-28T19:10:34.997Z,101.53
2019-02-28T19:13:18.198Z,99.07
2019-02-28T19:19:02.843Z,124.20
2019-02-28T19:21:33.434Z,99.73
2019-02-28T19:24:07.509Z,82.20
2019-02-28T19:30:00.976Z,114.50
2019-02-28T19:39:08.474Z,82.97
2019-02-28T19:42:45.651Z,81.90
2019-02-28T19:44:52.605Z,102.37
2019-02-28T19:53:06.314Z,144.90
2019-02-28T19:55:38.122Z,101.20
2019-02-28T19:58:09.537Z,71.60
2019-02-28T20:00:40.828Z,50.63
2019-02-28T20:03:15.090Z,50.67
2019-02-28T20:05:45.878Z,57.00
2019-02-28T20:08:17.405Z,64.60
2019-02-28T20:10:48.144Z,77.87
2019-02-28T20:13:21.764Z,132.20
2019-02-28T20:15:54.532Z,95.97
2019-02-28T20:18:24.406Z,84.83
2019-02-28T20:20:54.616Z,86.20
2019-02-28T20:23:25.451Z,59.30
2019-02-28T20:25:56.409Z,50.33
2019-02-28T20:28:27.000Z,42.93
2019-02-28T20:30:57.079Z,42.30
2019-02-28T20:33:27.946Z,44.67
2019-02-28T20:35:58.835Z,48.80
2019-02-28T20:38:29.809Z,62.60
2019-02-28T20:41:00.236Z,61.53
2019-02-28T20:43:30.201Z,68.13
2019-02-28T20:45:59.979Z,57.87
2019-02-28T20:48:29.772Z,49.17
2019-02-28T20:50:59.519Z,46.43
2019-02-28T20:53:29.333Z,36.13
2019-02-28T20:56:00.946Z,30.07
2019-02-28T20:58:33.191Z,35.97
2019-02-28T21:01:03.807Z,40.80
2019-02-28T21:03:34.913Z,46.97
2019-02-28T21:06:05.482Z,49.10
2019-02-28T21:08:36.336Z,66.53
2019-02-28T21:11:06.982Z,49.07
2019-02-28T21:13:37.861Z,48.77
2019-02-28T21:16:08.708Z,46.77
2019-02-28T21:18:40.622Z,52.03
2019-02-28T21:21:12.696Z,57.47
2019-02-28T21:23:44.493Z,67.47
2019-02-28T21:26:21.021Z,71.77
2019-02-28T21:28:51.038Z,56.97
2019-02-28T21:31:21.227Z,55.73
2019-02-28T21:33:51.758Z,49.37
2019-02-28T21:36:22.365Z,50.90
2019-02-28T21:38:53.540Z,60.00
2019-02-28T21:41:24.533Z,46.27
2019-02-28T21:43:56.575Z,42.10
2019-02-28T21:46:27.168Z,45.07
2019-02-28T21:48:58.168Z,38.93
2019-02-28T21:51:28.324Z,40.97
2019-02-28T21:53:58.584Z,43.03
2019-02-28T21:56:29.921Z,49.17
2019-02-28T21:59:00.942Z,46.20
2019-02-28T22:01:32.140Z,52.03
2019-02-28T22:04:04.867Z,56.83
2019-02-28T22:06:35.037Z,52.50
2019-02-28T22:09:08.715Z,51.67
2019-02-28T22:11:38.834Z,50.17
2019-02-28T22:14:10.211Z,46.50
2019-02-28T22:16:40.148Z,40.07
2019-02-28T22:19:09.917Z,43.23
2019-02-28T22:21:39.682Z,41.50
2019-02-28T22:24:09.440Z,45.17
2019-02-28T22:26:39.193Z,48.13
2019-02-28T22:29:08.968Z,48.47
2019-02-28T22:31:55.664Z,40.57
2019-02-28T22:34:29.697Z,34.07
2019-02-28T22:36:59.550Z,32.63
2019-02-28T22:39:30.229Z,33.10
2019-02-28T22:42:00.220Z,40.60
2019-02-28T22:44:30.174Z,40.10
2019-02-28T22:47:00.210Z,43.60
2019-02-28T22:49:30.214Z,43.23
2019-02-28T22:52:00.018Z,43.63
2019-02-28T22:54:29.795Z,39.20
2019-02-28T22:56:59.569Z,41.00
2019-02-28T22:59:38.315Z,38.30
2019-02-28T23:02:13.116Z,31.77
2019-02-28T23:04:43.100Z,29.50
2019-02-28T23:07:13.061Z,26.97
2019-02-28T23:09:59.638Z,29.67
2019-02-28T23:12:30.991Z,25.97
2019-02-28T23:15:00.870Z,27.73
2019-02-28T23:17:30.609Z,24.80
2019-02-28T23:20:00.383Z,25.73
2019-02-28T23:22:31.560Z,25.67
2019-02-28T23:25:01.351Z,28.13
2019-02-28T23:27:31.087Z,28.03
2019-02-28T23:30:03.987Z,27.53
2019-02-28T23:32:37.247Z,27.70
2019-02-28T23:35:10.238Z,25.57
2019-02-28T23:37:40.089Z,28.10
2019-02-28T23:40:10.200Z,24.60
2019-02-28T23:42:39.962Z,27.47
2019-02-28T23:45:09.739Z,25.80
2019-02-28T23:47:39.496Z,26.07
2019-02-28T23:50:10.276Z,25.83
2019-02-28T23:52:40.150Z,26.07
2019-02-28T23:55:10.273Z,26.37
2019-02-28T23:57:40.044Z,19.80
